Time;durP1;ratioP1;P1;durP2;ratioP2;P2;SDS_P1;SDS_P2;PMS_P1;PMS_P2;Temp;Humidity;BMP_temperature;BMP_pressure;BME280_temperature;BME280_humidity;BME280_pressure;Samples;Min_cycle;Max_cycle;Signal;HPM_P1;HPM_P2
2023/09/17 00:00:48;;;;;;;23.85;17.70;;;16.30;99.90;;;;;;5140600;27;20496;-72
2023/09/17 00:03:13;;;;;;;21.48;18.30;;;16.30;99.90;;;;;;5140661;27;20057;-73
2023/09/17 00:05:39;;;;;;;21.15;17.70;;;16.30;99.90;;;;;;5158873;27;20466;-72
2023/09/17 00:08:04;;;;;;;24.08;18.33;;;16.40;99.90;;;;;;5159147;27;20047;-73
2023/09/17 00:10:31;;;;;;;21.20;18.40;;;16.40;99.90;;;;;;5158872;27;20118;-72
2023/09/17 00:12:57;;;;;;;25.08;19.35;;;16.50;99.90;;;;;;5158527;27;20121;-72
2023/09/17 00:15:27;;;;;;;21.88;19.50;;;16.40;99.90;;;;;;5140227;27;20451;-73
2023/09/17 00:17:53;;;;;;;23.38;20.17;;;16.40;99.90;;;;;;5140300;27;20042;-72
2023/09/17 00:20:19;;;;;;;23.17;17.48;;;16.50;99.90;;;;;;5139956;27;20478;-73
2023/09/17 00:22:44;;;;;;;20.73;17.75;;;16.40;99.90;;;;;;5140315;27;20047;-73
2023/09/17 00:25:10;;;;;;;21.85;16.63;;;16.50;99.90;;;;;;5140029;27;20043;-72
2023/09/17 00:27:36;;;;;;;21.17;17.92;;;16.50;99.90;;;;;;5139677;27;20492;-72
2023/09/17 00:30:03;;;;;;;20.52;15.75;;;16.50;99.90;;;;;;5158328;27;20047;-72
2023/09/17 00:32:29;;;;;;;21.88;18.65;;;16.50;99.90;;;;;;5158271;27;20058;-72
2023/09/17 00:34:55;;;;;;;22.65;18.55;;;16.60;99.90;;;;;;5158307;27;20051;-72
2023/09/17 00:37:21;;;;;;;22.63;16.63;;;16.60;99.90;;;;;;5158359;27;20049;-73
2023/09/17 00:39:46;;;;;;;19.42;16.00;;;16.60;99.90;;;;;;5139734;27;20056;-72
2023/09/17 00:42:12;;;;;;;21.85;18.23;;;16.60;99.90;;;;;;5139537;27;20041;-73
2023/09/17 00:44:37;;;;;;;26.23;18.95;;;16.70;99.90;;;;;;5139815;27;20051;-72
2023/09/17 00:47:04;;;;;;;22.98;17.98;;;16.70;99.90;;;;;;5139561;27;20492;-72
2023/09/17 00:49:32;;;;;;;20.58;16.35;;;16.70;99.90;;;;;;5139422;27;20058;-72
2023/09/17 00:51:59;;;;;;;20.67;18.25;;;16.70;99.90;;;;;;5139702;27;20047;-72
2023/09/17 00:54:27;;;;;;;20.48;18.27;;;16.70;99.90;;;;;;5139364;27;20049;-72
2023/09/17 00:56:54;;;;;;;25.20;19.00;;;16.70;99.90;;;;;;5139192;27;20081;-72
2023/09/17 00:59:20;;;;;;;22.00;19.65;;;16.80;99.90;;;;;;5139477;27;20427;-72
2023/09/17 01:01:46;;;;;;;24.00;20.15;;;16.80;99.90;;;;;;5157746;27;20462;-72
2023/09/17 01:04:15;;;;;;;23.45;20.25;;;16.80;99.90;;;;;;5157758;27;20466;-72
2023/09/17 01:06:42;;;;;;;24.65;19.90;;;16.80;99.90;;;;;;5157796;27;20043;-72
2023/09/17 01:09:08;;;;;;;25.13;20.10;;;16.80;99.90;;;;;;5157731;27;20065;-72
2023/09/17 01:11:35;;;;;;;22.90;19.83;;;16.80;99.90;;;;;;5157512;27;20054;-72
2023/09/17 01:14:12;;;;;;;24.20;19.48;;;16.90;99.90;;;;;;5139211;27;20062;-73
2023/09/17 01:16:39;;;;;;;23.05;19.63;;;16.80;99.90;;;;;;5138893;27;20057;-72
2023/09/17 01:19:05;;;;;;;22.83;18.65;;;16.90;99.90;;;;;;5157583;27;20042;-73
2023/09/17 01:21:38;;;;;;;22.17;18.08;;;16.90;99.90;;;;;;5138915;27;20110;-72
2023/09/17 01:24:40;;;;;;;23.27;19.55;;;16.90;99.90;;;;;;5138852;27;20047;-72
2023/09/17 01:27:07;;;;;;;23.33;18.05;;;16.90;99.90;;;;;;5139221;27;20054;-72
2023/09/17 01:29:39;;;;;;;22.60;18.02;;;17.00;99.90;;;;;;5139427;27;20034;-72
2023/09/17 01:32:05;;;;;;;22.77;19.08;;;17.00;99.90;;;;;;5138784;27;20123;-72
2023/09/17 01:34:37;;;;;;;21.05;17.92;;;17.00;99.90;;;;;;5157189;27;20046;-72
2023/09/17 01:37:08;;;;;;;23.73;18.67;;;17.10;99.90;;;;;;5138578;27;20091;-72
2023/09/17 01:39:40;;;;;;;25.08;18.40;;;17.10;99.90;;;;;;5157144;27;20046;-72
2023/09/17 01:42:07;;;;;;;21.90;18.33;;;17.10;99.90;;;;;;5157054;27;20500;-72
2023/09/17 01:44:33;;;;;;;24.30;19.60;;;17.10;99.90;;;;;;5138267;27;20047;-72
2023/09/17 01:47:00;;;;;;;27.75;19.92;;;17.10;99.90;;;;;;5138217;27;20057;-72
2023/09/17 01:49:31;;;;;;;21.40;18.55;;;17.10;99.90;;;;;;5156947;27;20078;-73
2023/09/17 01:51:56;;;;;;;26.92;21.85;;;17.10;99.90;;;;;;5138359;27;20035;-72
2023/09/17 01:54:24;;;;;;;25.48;20.80;;;17.10;99.90;;;;;;5156810;27;20042;-72
2023/09/17 01:56:49;;;;;;;27.90;21.88;;;17.10;99.90;;;;;;5138098;27;20054;-72
2023/09/17 01:59:15;;;;;;;24.58;21.10;;;17.10;99.90;;;;;;5156501;27;20038;-72
2023/09/17 02:01:42;;;;;;;21.80;19.25;;;17.20;99.90;;;;;;5138244;27;20051;-72
2023/09/17 02:04:08;;;;;;;24.60;20.63;;;17.20;99.90;;;;;;5137921;27;20503;-71
2023/09/17 02:06:35;;;;;;;25.45;21.00;;;17.20;99.90;;;;;;5138681;27;20126;-72
2023/09/17 02:09:00;;;;;;;23.80;19.75;;;17.10;99.90;;;;;;5137981;27;20126;-72
2023/09/17 02:11:26;;;;;;;27.70;22.65;;;17.10;99.90;;;;;;5156519;27;20129;-72
2023/09/17 02:13:52;;;;;;;28.42;22.05;;;17.10;99.90;;;;;;5137665;27;20060;-73
2023/09/17 02:16:17;;;;;;;27.25;21.80;;;17.10;99.90;;;;;;5137529;27;20055;-72
2023/09/17 02:18:43;;;;;;;27.02;22.38;;;17.10;99.90;;;;;;5138033;27;20099;-72
2023/09/17 02:21:08;;;;;;;25.65;20.70;;;17.10;99.90;;;;;;5137934;27;20040;-72
2023/09/17 02:23:34;;;;;;;28.00;23.85;;;17.00;99.90;;;;;;5137775;27;20490;-73
2023/09/17 02:26:00;;;;;;;28.30;23.05;;;17.00;99.90;;;;;;5137352;27;20043;-73
2023/09/17 02:28:26;;;;;;;27.25;22.05;;;17.00;99.90;;;;;;5156112;27;20049;-73
2023/09/17 02:30:51;;;;;;;27.20;23.88;;;17.00;99.90;;;;;;5155968;27;20470;-73
2023/09/17 02:33:17;;;;;;;29.63;24.13;;;17.10;99.90;;;;;;5137443;27;20038;-72
2023/09/17 02:35:44;;;;;;;27.80;23.20;;;17.10;99.90;;;;;;5137319;27;20050;-72
2023/09/17 02:38:10;;;;;;;28.00;22.73;;;17.00;99.90;;;;;;5137396;27;20103;-73
2023/09/17 02:40:36;;;;;;;28.65;23.63;;;17.00;99.90;;;;;;5137168;27;20070;-72
2023/09/17 02:43:01;;;;;;;27.17;22.55;;;17.00;99.90;;;;;;5137272;27;20130;-73
2023/09/17 02:45:27;;;;;;;23.95;21.33;;;17.00;99.90;;;;;;5137187;27;20121;-72
2023/09/17 02:47:53;;;;;;;28.05;22.55;;;17.00;99.90;;;;;;5137188;27;20034;-73
2023/09/17 02:50:19;;;;;;;26.80;23.00;;;17.00;99.90;;;;;;5155663;27;20042;-73
2023/09/17 02:52:45;;;;;;;32.05;25.50;;;17.00;99.90;;;;;;5137270;27;20042;-72
2023/09/17 02:55:11;;;;;;;29.77;24.13;;;17.10;99.90;;;;;;5137099;27;20043;-72
2023/09/17 02:57:37;;;;;;;27.25;23.23;;;17.00;99.90;;;;;;5137194;27;20043;-72
2023/09/17 03:00:08;;;;;;;26.40;23.63;;;17.00;99.90;;;;;;5136930;27;20035;-72
2023/09/17 03:02:34;;;;;;;28.92;22.55;;;17.00;99.90;;;;;;5137122;27;20054;-73
2023/09/17 03:05:00;;;;;;;26.10;22.65;;;17.00;99.90;;;;;;5137271;27;20133;-72
2023/09/17 03:07:26;;;;;;;24.98;22.08;;;17.00;99.90;;;;;;5155450;27;20550;-73
2023/09/17 03:09:52;;;;;;;29.48;22.67;;;16.90;99.90;;;;;;5137184;27;20118;-72
2023/09/17 03:12:17;;;;;;;25.92;21.73;;;16.90;99.90;;;;;;5136999;27;20137;-73
2023/09/17 03:14:46;;;;;;;24.50;21.08;;;16.90;99.90;;;;;;5155516;27;20478;-72
2023/09/17 03:17:11;;;;;;;27.05;22.27;;;16.90;99.90;;;;;;5136803;27;20538;-72
2023/09/17 03:19:37;;;;;;;25.83;21.27;;;16.90;99.90;;;;;;5136807;27;20042;-72
2023/09/17 03:22:03;;;;;;;25.90;21.65;;;16.90;99.90;;;;;;5136858;27;20074;-72
2023/09/17 03:24:29;;;;;;;27.13;21.85;;;16.90;99.90;;;;;;5155414;27;20046;-73
2023/09/17 03:26:54;;;;;;;26.58;21.98;;;16.90;99.90;;;;;;5138086;27;20070;-73
2023/09/17 03:29:20;;;;;;;26.27;21.02;;;16.90;99.90;;;;;;5141054;27;20042;-73
2023/09/17 03:31:48;;;;;;;25.55;20.27;;;16.90;99.90;;;;;;5140837;27;20099;-73
2023/09/17 03:34:14;;;;;;;22.88;19.60;;;16.90;99.90;;;;;;5141219;27;20076;-72
2023/09/17 03:36:40;;;;;;;22.90;20.30;;;16.90;99.90;;;;;;5159451;27;20046;-72
2023/09/17 03:39:05;;;;;;;23.02;18.70;;;16.90;99.90;;;;;;5140906;27;20047;-73
2023/09/17 03:41:32;;;;;;;25.30;20.30;;;16.90;99.90;;;;;;5140980;27;20046;-73
2023/09/17 03:43:57;;;;;;;24.13;19.77;;;16.90;99.90;;;;;;5159270;27;20371;-73
2023/09/17 03:46:23;;;;;;;25.23;20.45;;;16.90;99.90;;;;;;5140702;27;20520;-73
2023/09/17 03:48:49;;;;;;;23.65;19.42;;;16.90;99.90;;;;;;5140953;27;20519;-72
2023/09/17 03:51:14;;;;;;;25.77;21.50;;;16.90;99.90;;;;;;5141014;27;20039;-73
2023/09/17 03:53:40;;;;;;;23.83;19.77;;;16.90;99.90;;;;;;5159204;27;20042;-73
2023/09/17 03:56:06;;;;;;;25.55;22.35;;;16.90;99.90;;;;;;5159103;27;20042;-73
2023/09/17 03:58:32;;;;;;;23.08;20.13;;;17.00;99.90;;;;;;5159134;27;20034;-72
2023/09/17 04:00:57;;;;;;;26.15;21.40;;;17.00;99.90;;;;;;5159158;27;20118;-72
2023/09/17 04:03:23;;;;;;;29.92;23.73;;;17.00;99.90;;;;;;5159138;27;20448;-72
2023/09/17 04:05:50;;;;;;;32.63;26.05;;;17.00;99.90;;;;;;5140707;27;20045;-73
2023/09/17 04:08:16;;;;;;;27.85;24.40;;;17.00;99.90;;;;;;5140588;27;20066;-72
2023/09/17 04:10:42;;;;;;;30.15;24.77;;;17.10;99.90;;;;;;5158872;27;20363;-73
2023/09/17 04:13:09;;;;;;;28.52;23.60;;;17.00;99.90;;;;;;5158866;27;20062;-73
2023/09/17 04:15:36;;;;;;;27.80;22.95;;;17.10;99.90;;;;;;5139890;27;20089;-73
2023/09/17 04:18:04;;;;;;;27.70;22.45;;;17.10;99.90;;;;;;5140011;27;20047;-73
2023/09/17 04:20:30;;;;;;;25.25;21.88;;;17.10;99.90;;;;;;5158652;27;20469;-73
2023/09/17 04:22:56;;;;;;;27.67;21.52;;;17.10;99.90;;;;;;5140105;27;20049;-73
2023/09/17 04:25:22;;;;;;;27.90;22.52;;;17.10;99.90;;;;;;5158490;27;20050;-73
2023/09/17 04:27:48;;;;;;;28.88;23.30;;;17.10;99.90;;;;;;5139833;27;20438;-73
2023/09/17 04:30:16;;;;;;;27.95;23.52;;;17.10;99.90;;;;;;5158492;27;20039;-72
2023/09/17 04:32:47;;;;;;;30.30;24.05;;;17.10;99.90;;;;;;5139526;27;20063;-72
2023/09/17 04:35:18;;;;;;;29.30;23.33;;;17.10;99.90;;;;;;5139695;27;20047;-72
2023/09/17 04:37:45;;;;;;;28.67;21.83;;;17.10;99.90;;;;;;5157664;27;20390;-73
2023/09/17 04:40:11;;;;;;;25.10;20.13;;;17.10;99.90;;;;;;5139789;27;20035;-72
2023/09/17 04:42:49;;;;;;;29.23;21.67;;;17.10;99.90;;;;;;5139622;27;20050;-73
2023/09/17 04:45:36;;;;;;;30.25;21.58;;;17.10;99.90;;;;;;5139943;27;20576;-72
2023/09/17 04:48:03;;;;;;;23.65;20.05;;;17.10;99.90;;;;;;5139597;27;20042;-73
2023/09/17 04:50:29;;;;;;;28.15;20.83;;;17.10;99.90;;;;;;5139669;27;20080;-73
2023/09/17 04:52:55;;;;;;;26.63;21.00;;;17.10;99.90;;;;;;5139374;27;20070;-72
2023/09/17 04:55:21;;;;;;;26.85;20.20;;;17.00;99.90;;;;;;5139588;27;20053;-73
2023/09/17 04:57:46;;;;;;;23.00;18.40;;;17.00;99.90;;;;;;5139358;27;20050;-73
2023/09/17 05:00:12;;;;;;;26.67;19.60;;;17.00;99.90;;;;;;5139381;27;20042;-73
2023/09/17 05:02:39;;;;;;;23.67;19.02;;;17.00;99.90;;;;;;5139441;27;20118;-73
2023/09/17 05:05:08;;;;;;;23.95;20.38;;;17.00;99.90;;;;;;5139511;27;20058;-72
2023/09/17 05:07:35;;;;;;;24.35;19.50;;;17.00;99.90;;;;;;5139468;27;20053;-72
2023/09/17 05:10:00;;;;;;;24.33;19.42;;;17.00;99.90;;;;;;5139420;27;20043;-73
2023/09/17 05:12:26;;;;;;;23.90;19.35;;;17.00;99.90;;;;;;5139355;27;20129;-72
2023/09/17 05:14:52;;;;;;;26.08;19.50;;;17.00;99.90;;;;;;5157479;27;20049;-72
2023/09/17 05:17:24;;;;;;;24.50;19.48;;;17.00;99.90;;;;;;5138721;27;20070;-72
2023/09/17 05:19:49;;;;;;;25.00;21.27;;;17.00;99.90;;;;;;5137926;27;20064;-72
2023/09/17 05:22:15;;;;;;;29.60;23.63;;;17.00;99.90;;;;;;5138593;27;20121;-72
2023/09/17 05:24:41;;;;;;;27.33;21.52;;;17.00;99.90;;;;;;5138629;27;20051;-72
2023/09/17 05:27:06;;;;;;;27.42;21.30;;;17.00;99.90;;;;;;5138884;27;20050;-72
2023/09/17 05:29:32;;;;;;;28.60;21.65;;;17.00;99.90;;;;;;5138570;27;20390;-72
2023/09/17 05:32:00;;;;;;;28.73;23.20;;;17.00;99.90;;;;;;5138481;27;20082;-72
2023/09/17 05:34:27;;;;;;;31.00;23.13;;;17.00;99.90;;;;;;5157160;27;20055;-72
2023/09/17 05:36:52;;;;;;;29.67;22.60;;;17.00;99.90;;;;;;5138416;27;20398;-72
2023/09/17 05:39:18;;;;;;;29.95;23.33;;;17.00;99.90;;;;;;5138509;27;20049;-72
2023/09/17 05:41:44;;;;;;;34.25;25.73;;;17.00;99.90;;;;;;5138788;27;20135;-72
2023/09/17 05:44:09;;;;;;;34.88;25.90;;;17.00;99.90;;;;;;5138494;27;20462;-72
2023/09/17 05:46:35;;;;;;;32.88;25.75;;;17.00;99.90;;;;;;5138558;27;20047;-72
2023/09/17 05:49:00;;;;;;;31.20;25.25;;;17.00;99.90;;;;;;5137521;27;20042;-72
2023/09/17 05:51:26;;;;;;;30.40;24.60;;;17.00;99.90;;;;;;5137980;27;20053;-72
2023/09/17 05:53:52;;;;;;;34.75;26.48;;;17.10;99.90;;;;;;5156810;27;20053;-72
2023/09/17 05:56:18;;;;;;;33.85;25.52;;;17.10;99.90;;;;;;5138162;27;20049;-72
2023/09/17 05:58:43;;;;;;;34.35;27.60;;;17.10;99.90;;;;;;5156679;27;20066;-72
2023/09/17 06:01:09;;;;;;;33.92;26.48;;;17.10;99.90;;;;;;5137864;27;20054;-72
2023/09/17 06:03:35;;;;;;;33.28;27.08;;;17.10;99.90;;;;;;5137895;27;20043;-72
2023/09/17 06:06:02;;;;;;;33.75;27.00;;;17.10;99.90;;;;;;5137815;27;20038;-72
2023/09/17 06:08:28;;;;;;;34.70;27.30;;;17.10;99.90;;;;;;5137755;27;20081;-72
2023/09/17 06:10:57;;;;;;;35.67;26.20;;;17.10;99.90;;;;;;5137783;27;20078;-72
2023/09/17 06:13:23;;;;;;;33.47;24.95;;;17.10;99.90;;;;;;5137858;27;20050;-72
2023/09/17 06:15:49;;;;;;;32.67;25.70;;;17.10;99.90;;;;;;5137738;27;20119;-72
2023/09/17 06:18:16;;;;;;;33.70;25.20;;;17.10;99.90;;;;;;5137690;27;20057;-71
2023/09/17 06:20:42;;;;;;;29.48;23.63;;;17.10;99.90;;;;;;5137750;27;20080;-71
2023/09/17 06:23:08;;;;;;;30.17;23.52;;;17.10;99.90;;;;;;5148882;27;20073;-70
2023/09/17 06:25:33;;;;;;;29.40;23.23;;;17.10;99.90;;;;;;5141286;27;20043;-71
2023/09/17 06:27:59;;;;;;;26.45;21.70;;;17.10;99.90;;;;;;5135241;27;20381;-71
2023/09/17 06:30:25;;;;;;;29.98;23.35;;;17.10;99.90;;;;;;5116563;27;20085;-71
2023/09/17 06:32:50;;;;;;;26.63;22.23;;;17.10;99.90;;;;;;5116325;27;20058;-70
2023/09/17 06:35:16;;;;;;;27.15;21.58;;;17.10;99.90;;;;;;5116602;27;20054;-72
2023/09/17 06:37:42;;;;;;;29.48;22.77;;;17.10;99.90;;;;;;5116390;27;20459;-71
2023/09/17 06:40:10;;;;;;;27.40;21.25;;;17.20;99.90;;;;;;5116694;27;20520;-71
2023/09/17 06:42:36;;;;;;;28.05;21.88;;;17.20;99.90;;;;;;5116349;27;20585;-71
2023/09/17 06:45:08;;;;;;;26.55;21.80;;;17.20;99.90;;;;;;5134671;27;20051;-71
2023/09/17 06:47:34;;;;;;;28.50;21.58;;;17.20;99.90;;;;;;5134982;27;20035;-70
2023/09/17 06:50:00;;;;;;;26.05;20.95;;;17.20;99.90;;;;;;5116436;27;20045;-71
2023/09/17 06:52:27;;;;;;;26.55;20.33;;;17.30;99.90;;;;;;5116140;27;20471;-71
2023/09/17 06:54:52;;;;;;;26.38;21.58;;;17.30;99.90;;;;;;5116423;27;20075;-71
2023/09/17 06:57:18;;;;;;;27.77;21.33;;;17.30;99.90;;;;;;5116075;27;20102;-71
2023/09/17 06:59:44;;;;;;;25.35;20.83;;;17.30;99.90;;;;;;5116277;27;20043;-71
2023/09/17 07:02:15;;;;;;;26.33;19.90;;;17.30;99.90;;;;;;5115950;27;20046;-71
2023/09/17 07:04:43;;;;;;;23.45;20.90;;;17.40;99.90;;;;;;5116251;27;20111;-71
2023/09/17 07:07:08;;;;;;;23.95;20.52;;;17.40;99.90;;;;;;5134420;27;20051;-71
2023/09/17 07:09:34;;;;;;;26.40;19.35;;;17.40;99.90;;;;;;5120471;27;20405;-71
2023/09/17 07:11:59;;;;;;;26.05;19.50;;;17.50;99.90;;;;;;5155183;27;20047;-71
2023/09/17 07:14:25;;;;;;;25.60;21.10;;;17.50;99.90;;;;;;5155007;27;20043;-71
2023/09/17 07:16:51;;;;;;;24.80;21.20;;;17.60;99.90;;;;;;5136455;27;20074;-71
2023/09/17 07:19:16;;;;;;;27.10;21.27;;;17.60;99.90;;;;;;5136468;27;20495;-71
2023/09/17 07:21:42;;;;;;;25.30;20.95;;;17.60;99.90;;;;;;5154911;27;20043;-71
2023/09/17 07:24:09;;;;;;;25.95;20.88;;;17.60;99.90;;;;;;5136293;27;20043;-71
2023/09/17 07:26:34;;;;;;;26.90;21.50;;;17.60;99.90;;;;;;5136332;27;20123;-71
2023/09/17 07:29:00;;;;;;;24.75;19.67;;;17.60;99.90;;;;;;5136289;27;20076;-71
2023/09/17 07:31:28;;;;;;;27.33;20.30;;;17.60;99.90;;;;;;5135991;27;20047;-71
2023/09/17 07:33:54;;;;;;;25.20;20.20;;;17.70;99.90;;;;;;5155203;27;20047;-71
2023/09/17 07:36:20;;;;;;;25.73;20.17;;;17.70;99.90;;;;;;5136298;27;20051;-71
2023/09/17 07:38:46;;;;;;;22.35;19.48;;;17.70;99.90;;;;;;5136421;27;20095;-71
2023/09/17 07:41:11;;;;;;;22.95;18.30;;;17.70;99.90;;;;;;5136459;27;20042;-71
2023/09/17 07:43:37;;;;;;;21.52;18.80;;;17.70;99.90;;;;;;5136472;27;20049;-71
2023/09/17 07:46:03;;;;;;;21.88;18.25;;;17.80;99.90;;;;;;5136057;27;20370;-72
2023/09/17 07:48:29;;;;;;;22.77;17.80;;;17.80;99.90;;;;;;5136418;27;20039;-71
2023/09/17 07:50:56;;;;;;;21.38;17.77;;;17.80;99.90;;;;;;5136100;27;20387;-71
2023/09/17 07:53:22;;;;;;;21.80;17.42;;;17.90;99.90;;;;;;5154620;27;20054;-71
2023/09/17 07:55:47;;;;;;;20.05;17.20;;;17.90;99.90;;;;;;5154015;27;20166;-70
2023/09/17 07:58:13;;;;;;;21.02;16.90;;;17.90;99.90;;;;;;5136104;27;20133;-70
2023/09/17 08:00:39;;;;;;;22.25;17.63;;;17.90;99.90;;;;;;5154548;27;20077;-70
2023/09/17 08:03:07;;;;;;;22.13;17.25;;;17.90;99.90;;;;;;5154593;27;20104;-70
2023/09/17 08:05:33;;;;;;;19.88;16.50;;;18.00;99.90;;;;;;5154511;27;20118;-70
2023/09/17 08:07:59;;;;;;;19.00;16.60;;;18.00;99.90;;;;;;5154461;27;20084;-70
2023/09/17 08:10:25;;;;;;;18.73;16.70;;;18.00;99.90;;;;;;5136176;27;20535;-70
2023/09/17 08:12:50;;;;;;;20.58;17.27;;;18.00;99.90;;;;;;5155559;27;20061;-70
2023/09/17 08:15:17;;;;;;;22.20;16.27;;;18.10;99.90;;;;;;5139949;27;20082;-70
2023/09/17 08:17:43;;;;;;;19.35;16.83;;;18.10;99.90;;;;;;5158242;27;20051;-70
2023/09/17 08:20:09;;;;;;;20.17;16.63;;;18.10;99.90;;;;;;5139635;27;20053;-70
2023/09/17 08:22:35;;;;;;;21.77;16.25;;;18.10;99.90;;;;;;5139897;27;20050;-70
2023/09/17 08:25:01;;;;;;;20.70;16.23;;;18.10;99.90;;;;;;5139928;27;20501;-71
2023/09/17 08:27:27;;;;;;;18.40;15.73;;;18.10;99.90;;;;;;5158071;27;20129;-71
2023/09/17 08:29:53;;;;;;;17.38;15.55;;;18.20;99.90;;;;;;5139526;27;20047;-70
2023/09/17 08:32:19;;;;;;;23.58;17.00;;;18.20;99.90;;;;;;5158107;27;20134;-70
2023/09/17 08:34:45;;;;;;;18.02;15.82;;;18.20;99.90;;;;;;5139384;27;20047;-70
2023/09/17 08:37:11;;;;;;;19.95;16.52;;;18.20;99.90;;;;;;5139299;27;20396;-71
2023/09/17 08:39:36;;;;;;;17.90;15.63;;;18.30;99.90;;;;;;5139441;27;20038;-73
2023/09/17 08:42:03;;;;;;;20.20;16.42;;;18.20;99.90;;;;;;5139364;27;20051;-71
2023/09/17 08:44:32;;;;;;;18.70;16.05;;;18.30;99.90;;;;;;5158138;27;20045;-71
2023/09/17 08:46:59;;;;;;;23.05;16.30;;;18.20;99.90;;;;;;5138450;27;20095;-72
2023/09/17 08:49:25;;;;;;;17.38;15.57;;;18.20;99.90;;;;;;5138791;27;20055;-71
2023/09/17 08:51:55;;;;;;;17.30;15.48;;;18.30;99.90;;;;;;5139436;27;20043;-71
2023/09/17 08:54:37;;;;;;;19.75;15.18;;;18.20;99.90;;;;;;5138675;27;20035;-71
2023/09/17 08:57:10;;;;;;;18.38;15.32;;;18.20;99.90;;;;;;5157290;27;20485;-71
2023/09/17 08:59:46;;;;;;;17.92;16.05;;;18.30;99.90;;;;;;5138876;27;20446;-71
2023/09/17 09:02:25;;;;;;;19.00;15.30;;;18.30;99.90;;;;;;5139140;27;20520;-71
2023/09/17 09:04:51;;;;;;;18.73;16.70;;;18.30;99.90;;;;;;5138911;27;20066;-71
2023/09/17 09:07:23;;;;;;;20.38;16.67;;;18.30;99.90;;;;;;5139050;27;20050;-71
2023/09/17 09:09:51;;;;;;;20.20;17.80;;;18.20;99.90;;;;;;5138924;27;20489;-71
2023/09/17 09:12:18;;;;;;;18.60;16.42;;;18.20;99.90;;;;;;5155343;27;20060;-71
2023/09/17 09:14:44;;;;;;;21.02;18.55;;;18.20;99.90;;;;;;5157512;27;20039;-71
2023/09/17 09:17:11;;;;;;;24.75;18.60;;;18.30;99.90;;;;;;5138650;27;20046;-71
2023/09/17 09:19:37;;;;;;;23.02;18.85;;;18.20;99.90;;;;;;5138593;27;20053;-71
2023/09/17 09:22:03;;;;;;;23.45;19.08;;;18.20;99.90;;;;;;5138620;27;20055;-71
2023/09/17 09:24:40;;;;;;;20.17;17.92;;;18.20;99.90;;;;;;5137430;27;20054;-71
2023/09/17 09:27:06;;;;;;;21.05;17.98;;;18.20;99.90;;;;;;5138698;27;20051;-71
2023/09/17 09:29:31;;;;;;;22.55;17.02;;;18.20;99.90;;;;;;5138260;27;20130;-71
2023/09/17 09:31:58;;;;;;;20.70;16.70;;;18.20;99.90;;;;;;5138396;27;20101;-71
2023/09/17 09:34:26;;;;;;;23.85;16.48;;;18.30;99.90;;;;;;5138160;27;20138;-71
2023/09/17 09:36:51;;;;;;;20.05;15.68;;;18.30;99.90;;;;;;5156720;27;20043;-71
2023/09/17 09:39:17;;;;;;;17.92;15.50;;;18.30;99.90;;;;;;5156929;27;20431;-71
2023/09/17 09:41:43;;;;;;;21.23;16.05;;;18.30;99.90;;;;;;5138346;27;20045;-71
2023/09/17 09:44:09;;;;;;;20.23;15.45;;;18.30;99.90;;;;;;5156052;27;20051;-71
2023/09/17 09:46:36;;;;;;;19.52;15.57;;;18.20;99.90;;;;;;5137621;27;20068;-71
2023/09/17 09:49:05;;;;;;;19.67;16.00;;;18.20;99.90;;;;;;5137762;27;20050;-71
2023/09/17 09:51:31;;;;;;;18.13;15.70;;;18.20;99.90;;;;;;5156110;27;20042;-71
2023/09/17 09:53:57;;;;;;;22.35;15.85;;;18.20;99.90;;;;;;5137708;27;20047;-71
2023/09/17 09:56:28;;;;;;;21.00;17.45;;;18.20;99.90;;;;;;5137956;27;20046;-71
2023/09/17 09:58:55;;;;;;;21.98;18.45;;;18.20;99.90;;;;;;5138059;27;20050;-71
2023/09/17 10:01:21;;;;;;;23.65;20.27;;;18.30;99.90;;;;;;5137964;27;20069;-71
2023/09/17 10:03:47;;;;;;;24.05;19.98;;;18.30;99.90;;;;;;5137769;27;20490;-71
2023/09/17 10:06:14;;;;;;;25.52;21.42;;;18.40;99.90;;;;;;5156099;27;20413;-71
2023/09/17 10:08:54;;;;;;;23.92;19.70;;;18.40;99.90;;;;;;5154123;27;20047;-71
2023/09/17 10:11:22;;;;;;;22.75;19.65;;;18.40;99.90;;;;;;5137746;27;20043;-71
2023/09/17 10:13:51;;;;;;;25.40;19.25;;;18.40;99.90;;;;;;5137870;27;20058;-71
2023/09/17 10:16:17;;;;;;;24.23;21.35;;;18.40;99.90;;;;;;5137442;27;20050;-71
2023/09/17 10:18:46;;;;;;;28.95;21.27;;;18.40;99.90;;;;;;5137389;27;20042;-70
2023/09/17 10:21:14;;;;;;;30.52;23.15;;;18.30;99.90;;;;;;5155797;27;20045;-70
2023/09/17 10:23:40;;;;;;;27.45;22.60;;;18.30;99.90;;;;;;5155917;27;20054;-70
2023/09/17 10:26:10;;;;;;;27.17;22.30;;;18.30;99.90;;;;;;5155920;27;20039;-70
2023/09/17 10:28:37;;;;;;;26.52;21.55;;;18.20;99.90;;;;;;5137231;27;20122;-70
2023/09/17 10:31:06;;;;;;;27.42;23.38;;;18.20;99.90;;;;;;5137126;27;20042;-71
2023/09/17 10:33:33;;;;;;;29.60;23.75;;;18.20;99.90;;;;;;5127614;27;20057;-71
2023/09/17 10:36:00;;;;;;;24.85;21.98;;;18.10;99.90;;;;;;5125038;27;20104;-71
2023/09/17 10:38:27;;;;;;;25.70;22.25;;;18.10;99.90;;;;;;5114513;27;20118;-70
2023/09/17 10:40:55;;;;;;;26.88;23.25;;;18.10;99.90;;;;;;5126732;27;20050;-70
2023/09/17 10:43:22;;;;;;;27.13;23.35;;;18.10;99.90;;;;;;5137247;27;20038;-70
2023/09/17 10:45:50;;;;;;;27.35;23.25;;;18.00;99.90;;;;;;5136283;27;20046;-70
2023/09/17 10:48:18;;;;;;;30.83;23.38;;;18.10;99.90;;;;;;5155315;27;20050;-71
2023/09/17 10:50:44;;;;;;;27.98;24.90;;;18.00;99.90;;;;;;5136821;27;20038;-71
2023/09/17 10:53:10;;;;;;;30.77;25.25;;;18.00;99.90;;;;;;5155544;27;20091;-71
2023/09/17 10:55:40;;;;;;;30.65;24.15;;;18.00;99.90;;;;;;5136059;27;20482;-71
2023/09/17 10:58:27;;;;;;;29.95;26.55;;;18.00;99.90;;;;;;5155604;27;20034;-71
2023/09/17 11:00:56;;;;;;;29.77;25.45;;;18.00;99.90;;;;;;5137008;27;20054;-71
2023/09/17 11:03:24;;;;;;;29.30;24.02;;;18.00;99.90;;;;;;5136638;27;20089;-71
2023/09/17 11:05:52;;;;;;;27.48;24.35;;;18.00;99.90;;;;;;5136687;27;20091;-71
2023/09/17 11:08:18;;;;;;;29.25;24.35;;;18.00;99.90;;;;;;5155293;27;20043;-71
2023/09/17 11:10:44;;;;;;;29.08;24.45;;;18.00;99.90;;;;;;5154668;27;20047;-71
2023/09/17 11:13:14;;;;;;;26.77;23.02;;;18.00;99.90;;;;;;5136619;27;20409;-70
2023/09/17 11:15:43;;;;;;;29.60;25.95;;;18.00;99.90;;;;;;5136595;27;20497;-71
2023/09/17 11:18:09;;;;;;;32.03;25.20;;;18.00;99.90;;;;;;5155237;27;20078;-70
2023/09/17 11:20:38;;;;;;;35.17;26.25;;;18.10;99.90;;;;;;5136433;27;20034;-71
2023/09/17 11:23:04;;;;;;;33.10;26.52;;;18.10;99.90;;;;;;5136558;27;20406;-71
2023/09/17 11:25:39;;;;;;;31.85;26.73;;;18.10;99.90;;;;;;5136410;27;20054;-71
2023/09/17 11:28:15;;;;;;;32.67;27.20;;;18.10;99.90;;;;;;5136589;27;20062;-71
2023/09/17 11:30:57;;;;;;;31.08;26.70;;;18.10;99.90;;;;;;5136630;27;20046;-71
2023/09/17 11:33:25;;;;;;;28.52;25.08;;;18.20;99.90;;;;;;5136145;27;20576;-72
2023/09/17 11:35:55;;;;;;;31.30;25.42;;;18.10;99.90;;;;;;5136185;27;20050;-70
2023/09/17 11:38:29;;;;;;;30.17;25.08;;;18.20;99.90;;;;;;5136380;27;20078;-72
2023/09/17 11:41:09;;;;;;;27.98;23.02;;;18.20;99.90;;;;;;5136483;27;20047;-72
2023/09/17 11:43:42;;;;;;;27.00;21.42;;;18.10;99.90;;;;;;5154818;27;20174;-71
2023/09/17 11:46:08;;;;;;;27.00;21.35;;;18.10;99.90;;;;;;5135741;27;20588;-72
2023/09/17 11:48:36;;;;;;;27.25;22.67;;;18.00;99.90;;;;;;5130968;27;20382;-72
2023/09/17 11:51:19;;;;;;;28.98;21.80;;;18.00;99.90;;;;;;5129317;27;20046;-72
2023/09/17 11:53:59;;;;;;;29.60;22.17;;;17.90;99.90;;;;;;5119799;27;20043;-72
2023/09/17 11:56:28;;;;;;;26.50;20.38;;;17.90;99.90;;;;;;5131980;27;20509;-72
2023/09/17 11:58:57;;;;;;;26.17;20.65;;;17.90;99.90;;;;;;5140191;27;20499;-72
2023/09/17 12:01:24;;;;;;;21.70;17.60;;;17.80;99.90;;;;;;5139022;27;20660;-72
2023/09/17 12:03:53;;;;;;;24.02;19.52;;;17.80;99.90;;;;;;5138458;27;20394;-72
2023/09/17 12:06:20;;;;;;;23.58;19.55;;;17.80;99.90;;;;;;5138854;27;20039;-72
2023/09/17 12:08:47;;;;;;;25.70;20.42;;;17.80;99.90;;;;;;5158520;27;20039;-71
2023/09/17 12:11:21;;;;;;;29.90;21.48;;;17.80;99.90;;;;;;5158703;27;20046;-72
2023/09/17 12:13:56;;;;;;;29.50;22.90;;;17.90;99.90;;;;;;5139378;27;20053;-71
2023/09/17 12:16:26;;;;;;;30.40;22.85;;;17.90;99.90;;;;;;5139418;27;20046;-71
2023/09/17 12:18:53;;;;;;;32.00;23.92;;;18.00;99.90;;;;;;5139914;27;20119;-71
2023/09/17 12:21:20;;;;;;;28.83;22.83;;;18.00;99.90;;;;;;5158317;27;20039;-71
2023/09/17 12:24:04;;;;;;;31.13;22.55;;;18.00;99.90;;;;;;5140022;27;20070;-71
2023/09/17 12:26:36;;;;;;;25.02;22.42;;;18.10;99.90;;;;;;5139889;27;20508;-71
2023/09/17 12:29:09;;;;;;;26.10;21.38;;;18.10;99.90;;;;;;5158175;27;20441;-71